sensor_id;sensor_type;location;lat;lon;timestamp;P1;durP1;ratioP1;P2;durP2;ratioP2
809;SDS011;387;48.772;9.186;2022-08-01T00:00:39;4.80;;;3.30;;
809;SDS011;387;48.772;9.186;2022-08-01T00:03:04;3.77;;;2.80;;
809;SDS011;387;48.772;9.186;2022-08-01T00:05:30;5.13;;;3.10;;
809;SDS011;387;48.772;9.186;2022-08-01T00:07:56;4.70;;;2.67;;
809;SDS011;387;48.772;9.186;2022-08-01T00:10:22;4.47;;;3.37;;
809;SDS011;387;48.772;9.186;2022-08-01T00:12:48;4.40;;;3.13;;
809;SDS011;387;48.772;9.186;2022-08-01T00:15:14;6.00;;;3.10;;
809;SDS011;387;48.772;9.186;2022-08-01T00:17:41;4.93;;;3.47;;
809;SDS011;387;48.772;9.186;2022-08-01T00:20:09;4.50;;;3.80;;
809;SDS011;387;48.772;9.186;2022-08-01T00:22:36;4.00;;;3.00;;
809;SDS011;387;48.772;9.186;2022-08-01T00:25:02;5.73;;;3.60;;
809;SDS011;387;48.772;9.186;2022-08-01T00:27:29;4.87;;;2.87;;
809;SDS011;387;48.772;9.186;2022-08-01T00:29:54;6.80;;;3.50;;
809;SDS011;387;48.772;9.186;2022-08-01T00:32:20;6.03;;;3.63;;
809;SDS011;387;48.772;9.186;2022-08-01T00:34:45;5.50;;;3.50;;
809;SDS011;387;48.772;9.186;2022-08-01T00:37:11;4.00;;;3.17;;
809;SDS011;387;48.772;9.186;2022-08-01T00:39:37;4.30;;;2.77;;
809;SDS011;387;48.772;9.186;2022-08-01T00:42:06;5.37;;;3.03;;
809;SDS011;387;48.772;9.186;2022-08-01T00:44:33;5.17;;;3.70;;
809;SDS011;387;48.772;9.186;2022-08-01T00:46:59;5.03;;;3.30;;
809;SDS011;387;48.772;9.186;2022-08-01T00:49:25;3.83;;;3.10;;
809;SDS011;387;48.772;9.186;2022-08-01T00:51:50;5.23;;;3.60;;
809;SDS011;387;48.772;9.186;2022-08-01T00:54:16;3.97;;;3.10;;
809;SDS011;387;48.772;9.186;2022-08-01T00:56:42;4.23;;;3.20;;
809;SDS011;387;48.772;9.186;2022-08-01T00:59:08;4.97;;;3.70;;
809;SDS011;387;48.772;9.186;2022-08-01T01:01:36;4.83;;;3.70;;
809;SDS011;387;48.772;9.186;2022-08-01T01:04:01;5.13;;;3.53;;
809;SDS011;387;48.772;9.186;2022-08-01T01:06:30;6.50;;;3.80;;
809;SDS011;387;48.772;9.186;2022-08-01T01:09:17;4.67;;;3.53;;
809;SDS011;387;48.772;9.186;2022-08-01T01:11:55;4.40;;;3.10;;
809;SDS011;387;48.772;9.186;2022-08-01T01:17:28;7.53;;;3.80;;
809;SDS011;387;48.772;9.186;2022-08-01T01:20:00;6.93;;;3.30;;
809;SDS011;387;48.772;9.186;2022-08-01T01:30:28;5.27;;;3.47;;
809;SDS011;387;48.772;9.186;2022-08-01T01:32:56;6.17;;;4.00;;
809;SDS011;387;48.772;9.186;2022-08-01T01:35:27;5.17;;;3.60;;
809;SDS011;387;48.772;9.186;2022-08-01T01:38:07;4.57;;;3.57;;
809;SDS011;387;48.772;9.186;2022-08-01T01:40:42;6.33;;;4.50;;
809;SDS011;387;48.772;9.186;2022-08-01T01:43:10;5.77;;;3.87;;
809;SDS011;387;48.772;9.186;2022-08-01T01:45:37;6.77;;;3.97;;
809;SDS011;387;48.772;9.186;2022-08-01T01:48:05;8.00;;;4.37;;
809;SDS011;387;48.772;9.186;2022-08-01T01:50:32;5.23;;;4.00;;
809;SDS011;387;48.772;9.186;2022-08-01T01:52:59;4.10;;;2.97;;
809;SDS011;387;48.772;9.186;2022-08-01T01:55:27;6.33;;;4.30;;
809;SDS011;387;48.772;9.186;2022-08-01T01:57:54;4.40;;;3.43;;
809;SDS011;387;48.772;9.186;2022-08-01T02:00:21;5.20;;;3.83;;
809;SDS011;387;48.772;9.186;2022-08-01T02:02:48;8.83;;;3.53;;
809;SDS011;387;48.772;9.186;2022-08-01T02:05:16;5.33;;;3.30;;
809;SDS011;387;48.772;9.186;2022-08-01T02:07:42;5.80;;;3.63;;
809;SDS011;387;48.772;9.186;2022-08-01T02:10:08;4.60;;;3.50;;
809;SDS011;387;48.772;9.186;2022-08-01T02:12:37;5.40;;;3.67;;
809;SDS011;387;48.772;9.186;2022-08-01T02:15:06;4.93;;;3.57;;
809;SDS011;387;48.772;9.186;2022-08-01T02:17:34;7.70;;;4.47;;
809;SDS011;387;48.772;9.186;2022-08-01T02:20:04;6.70;;;4.20;;
809;SDS011;387;48.772;9.186;2022-08-01T02:22:32;6.43;;;3.93;;
809;SDS011;387;48.772;9.186;2022-08-01T02:25:15;4.77;;;3.53;;
809;SDS011;387;48.772;9.186;2022-08-01T02:28:01;6.40;;;3.70;;
809;SDS011;387;48.772;9.186;2022-08-01T02:30:35;7.03;;;3.30;;
809;SDS011;387;48.772;9.186;2022-08-01T02:33:08;5.03;;;3.63;;
809;SDS011;387;48.772;9.186;2022-08-01T02:35:41;5.87;;;3.80;;
809;SDS011;387;48.772;9.186;2022-08-01T02:38:11;4.73;;;3.93;;
809;SDS011;387;48.772;9.186;2022-08-01T02:40:40;4.90;;;3.90;;
809;SDS011;387;48.772;9.186;2022-08-01T02:43:08;5.17;;;3.80;;
809;SDS011;387;48.772;9.186;2022-08-01T02:45:35;6.80;;;3.70;;
809;SDS011;387;48.772;9.186;2022-08-01T02:48:07;5.17;;;3.77;;
809;SDS011;387;48.772;9.186;2022-08-01T02:50:39;4.73;;;3.30;;
809;SDS011;387;48.772;9.186;2022-08-01T02:53:08;4.00;;;3.40;;
809;SDS011;387;48.772;9.186;2022-08-01T02:55:36;5.67;;;3.43;;
809;SDS011;387;48.772;9.186;2022-08-01T02:58:04;4.60;;;3.50;;
809;SDS011;387;48.772;9.186;2022-08-01T03:00:33;5.50;;;3.60;;
809;SDS011;387;48.772;9.186;2022-08-01T03:03:00;4.97;;;3.50;;
809;SDS011;387;48.772;9.186;2022-08-01T03:05:28;5.37;;;3.80;;
809;SDS011;387;48.772;9.186;2022-08-01T03:07:57;9.10;;;4.33;;
809;SDS011;387;48.772;9.186;2022-08-01T03:10:24;8.73;;;4.23;;
809;SDS011;387;48.772;9.186;2022-08-01T03:12:53;5.33;;;3.77;;
809;SDS011;387;48.772;9.186;2022-08-01T03:15:20;7.63;;;4.23;;
809;SDS011;387;48.772;9.186;2022-08-01T03:17:48;6.23;;;4.10;;
809;SDS011;387;48.772;9.186;2022-08-01T03:20:16;6.30;;;4.10;;
809;SDS011;387;48.772;9.186;2022-08-01T03:22:44;6.13;;;3.83;;
809;SDS011;387;48.772;9.186;2022-08-01T03:25:12;6.13;;;4.50;;
809;SDS011;387;48.772;9.186;2022-08-01T03:27:40;7.70;;;4.20;;
809;SDS011;387;48.772;9.186;2022-08-01T03:30:08;5.07;;;3.77;;
809;SDS011;387;48.772;9.186;2022-08-01T03:32:35;7.50;;;3.70;;
809;SDS011;387;48.772;9.186;2022-08-01T03:35:01;6.23;;;3.97;;
809;SDS011;387;48.772;9.186;2022-08-01T03:37:34;7.33;;;3.97;;
809;SDS011;387;48.772;9.186;2022-08-01T03:40:07;6.93;;;3.83;;
809;SDS011;387;48.772;9.186;2022-08-01T03:42:41;3.50;;;3.23;;
809;SDS011;387;48.772;9.186;2022-08-01T03:45:15;5.70;;;3.93;;
809;SDS011;387;48.772;9.186;2022-08-01T03:47:44;5.30;;;3.90;;
809;SDS011;387;48.772;9.186;2022-08-01T03:50:13;6.10;;;4.10;;
809;SDS011;387;48.772;9.186;2022-08-01T03:52:41;5.77;;;3.50;;
809;SDS011;387;48.772;9.186;2022-08-01T03:55:09;5.40;;;3.50;;
809;SDS011;387;48.772;9.186;2022-08-01T03:57:37;5.40;;;3.60;;
809;SDS011;387;48.772;9.186;2022-08-01T04:00:05;5.80;;;3.20;;
809;SDS011;387;48.772;9.186;2022-08-01T04:02:33;5.07;;;3.47;;
809;SDS011;387;48.772;9.186;2022-08-01T04:05:00;6.67;;;4.20;;
809;SDS011;387;48.772;9.186;2022-08-01T04:07:29;4.93;;;3.23;;
809;SDS011;387;48.772;9.186;2022-08-01T04:09:56;5.80;;;3.93;;
809;SDS011;387;48.772;9.186;2022-08-01T04:12:22;5.87;;;3.93;;
809;SDS011;387;48.772;9.186;2022-08-01T04:14:48;4.33;;;3.17;;
809;SDS011;387;48.772;9.186;2022-08-01T04:17:15;6.03;;;4.13;;
809;SDS011;387;48.772;9.186;2022-08-01T04:19:41;6.00;;;3.70;;
809;SDS011;387;48.772;9.186;2022-08-01T04:22:08;5.10;;;3.63;;
809;SDS011;387;48.772;9.186;2022-08-01T04:24:35;8.23;;;3.53;;
809;SDS011;387;48.772;9.186;2022-08-01T04:27:01;4.43;;;3.23;;
809;SDS011;387;48.772;9.186;2022-08-01T04:29:30;5.87;;;3.73;;
809;SDS011;387;48.772;9.186;2022-08-01T04:31:57;4.93;;;3.37;;
809;SDS011;387;48.772;9.186;2022-08-01T04:34:25;5.50;;;3.40;;
809;SDS011;387;48.772;9.186;2022-08-01T04:36:56;4.20;;;3.50;;
809;SDS011;387;48.772;9.186;2022-08-01T04:39:26;5.83;;;4.00;;
809;SDS011;387;48.772;9.186;2022-08-01T04:41:54;4.13;;;3.17;;
809;SDS011;387;48.772;9.186;2022-08-01T04:44:22;5.70;;;3.47;;
809;SDS011;387;48.772;9.186;2022-08-01T04:46:48;4.33;;;3.13;;
809;SDS011;387;48.772;9.186;2022-08-01T04:49:19;5.30;;;3.20;;
809;SDS011;387;48.772;9.186;2022-08-01T04:51:49;3.93;;;2.90;;
809;SDS011;387;48.772;9.186;2022-08-01T04:54:16;4.07;;;3.27;;
809;SDS011;387;48.772;9.186;2022-08-01T04:56:41;4.67;;;3.20;;
809;SDS011;387;48.772;9.186;2022-08-01T04:59:07;4.70;;;3.30;;
809;SDS011;387;48.772;9.186;2022-08-01T05:01:51;4.73;;;3.80;;
809;SDS011;387;48.772;9.186;2022-08-01T05:04:17;4.50;;;2.90;;
809;SDS011;387;48.772;9.186;2022-08-01T05:06:43;6.03;;;3.80;;
809;SDS011;387;48.772;9.186;2022-08-01T05:09:09;4.97;;;3.10;;
809;SDS011;387;48.772;9.186;2022-08-01T05:11:34;4.73;;;2.90;;
809;SDS011;387;48.772;9.186;2022-08-01T05:14:00;5.90;;;3.03;;
809;SDS011;387;48.772;9.186;2022-08-01T05:16:26;3.83;;;2.60;;
809;SDS011;387;48.772;9.186;2022-08-01T05:18:51;4.70;;;3.17;;
809;SDS011;387;48.772;9.186;2022-08-01T05:21:17;5.83;;;3.53;;
809;SDS011;387;48.772;9.186;2022-08-01T05:23:42;5.93;;;3.30;;
809;SDS011;387;48.772;9.186;2022-08-01T05:26:08;3.60;;;3.13;;
809;SDS011;387;48.772;9.186;2022-08-01T05:28:35;6.03;;;3.07;;
809;SDS011;387;48.772;9.186;2022-08-01T05:31:00;7.00;;;4.00;;
809;SDS011;387;48.772;9.186;2022-08-01T05:33:26;5.30;;;3.70;;
809;SDS011;387;48.772;9.186;2022-08-01T05:35:51;5.57;;;3.80;;
809;SDS011;387;48.772;9.186;2022-08-01T05:38:17;3.83;;;3.00;;
809;SDS011;387;48.772;9.186;2022-08-01T05:40:42;4.90;;;3.47;;
809;SDS011;387;48.772;9.186;2022-08-01T05:43:08;5.13;;;3.10;;
809;SDS011;387;48.772;9.186;2022-08-01T05:45:34;6.93;;;3.33;;
809;SDS011;387;48.772;9.186;2022-08-01T05:47:59;7.03;;;2.73;;
809;SDS011;387;48.772;9.186;2022-08-01T05:50:25;4.40;;;2.77;;
809;SDS011;387;48.772;9.186;2022-08-01T05:52:50;6.53;;;2.97;;
809;SDS011;387;48.772;9.186;2022-08-01T05:55:16;4.80;;;2.57;;
809;SDS011;387;48.772;9.186;2022-08-01T05:57:41;4.43;;;2.97;;
809;SDS011;387;48.772;9.186;2022-08-01T06:00:07;3.70;;;2.50;;
809;SDS011;387;48.772;9.186;2022-08-01T06:02:34;4.30;;;2.83;;
809;SDS011;387;48.772;9.186;2022-08-01T06:05:04;6.50;;;2.57;;
809;SDS011;387;48.772;9.186;2022-08-01T06:07:30;3.40;;;2.40;;
809;SDS011;387;48.772;9.186;2022-08-01T06:09:56;5.37;;;2.70;;
809;SDS011;387;48.772;9.186;2022-08-01T06:12:21;4.87;;;2.70;;
809;SDS011;387;48.772;9.186;2022-08-01T06:14:47;5.23;;;3.20;;
809;SDS011;387;48.772;9.186;2022-08-01T06:17:12;5.60;;;3.00;;
809;SDS011;387;48.772;9.186;2022-08-01T06:19:38;4.80;;;2.63;;
809;SDS011;387;48.772;9.186;2022-08-01T06:22:03;3.13;;;2.37;;
809;SDS011;387;48.772;9.186;2022-08-01T06:24:29;3.50;;;2.30;;
809;SDS011;387;48.772;9.186;2022-08-01T06:26:55;4.10;;;2.33;;
809;SDS011;387;48.772;9.186;2022-08-01T06:29:20;4.53;;;1.97;;
809;SDS011;387;48.772;9.186;2022-08-01T06:31:46;3.73;;;2.70;;
809;SDS011;387;48.772;9.186;2022-08-01T06:34:11;3.10;;;2.03;;
809;SDS011;387;48.772;9.186;2022-08-01T06:36:37;4.70;;;2.40;;
809;SDS011;387;48.772;9.186;2022-08-01T06:39:02;2.90;;;2.27;;
809;SDS011;387;48.772;9.186;2022-08-01T06:41:28;4.00;;;1.90;;
809;SDS011;387;48.772;9.186;2022-08-01T06:43:54;2.70;;;2.00;;
809;SDS011;387;48.772;9.186;2022-08-01T06:46:19;2.30;;;1.97;;
809;SDS011;387;48.772;9.186;2022-08-01T06:48:45;4.53;;;2.50;;
809;SDS011;387;48.772;9.186;2022-08-01T06:51:10;3.30;;;2.43;;
809;SDS011;387;48.772;9.186;2022-08-01T06:53:40;4.70;;;2.27;;
809;SDS011;387;48.772;9.186;2022-08-01T06:56:06;3.77;;;2.43;;
809;SDS011;387;48.772;9.186;2022-08-01T06:58:33;6.80;;;2.63;;
809;SDS011;387;48.772;9.186;2022-08-01T07:00:59;3.90;;;2.63;;
809;SDS011;387;48.772;9.186;2022-08-01T07:03:26;2.63;;;2.07;;
809;SDS011;387;48.772;9.186;2022-08-01T07:05:52;4.73;;;2.40;;
809;SDS011;387;48.772;9.186;2022-08-01T07:08:17;3.03;;;2.40;;
809;SDS011;387;48.772;9.186;2022-08-01T07:10:43;3.93;;;2.10;;
809;SDS011;387;48.772;9.186;2022-08-01T07:13:09;6.67;;;2.40;;
809;SDS011;387;48.772;9.186;2022-08-01T07:15:34;3.50;;;2.23;;
809;SDS011;387;48.772;9.186;2022-08-01T07:18:00;2.67;;;2.17;;
809;SDS011;387;48.772;9.186;2022-08-01T07:20:28;3.47;;;2.10;;
809;SDS011;387;48.772;9.186;2022-08-01T07:22:54;3.93;;;2.73;;
809;SDS011;387;48.772;9.186;2022-08-01T07:25:20;6.20;;;2.97;;
809;SDS011;387;48.772;9.186;2022-08-01T07:27:45;2.80;;;2.00;;
809;SDS011;387;48.772;9.186;2022-08-01T07:30:11;3.80;;;2.57;;
809;SDS011;387;48.772;9.186;2022-08-01T07:32:37;3.30;;;2.50;;
809;SDS011;387;48.772;9.186;2022-08-01T07:35:03;2.57;;;2.30;;
809;SDS011;387;48.772;9.186;2022-08-01T07:37:28;3.63;;;2.40;;
809;SDS011;387;48.772;9.186;2022-08-01T07:39:54;3.50;;;2.57;;
809;SDS011;387;48.772;9.186;2022-08-01T07:42:20;3.80;;;2.83;;
809;SDS011;387;48.772;9.186;2022-08-01T07:44:45;4.97;;;2.53;;
809;SDS011;387;48.772;9.186;2022-08-01T07:47:11;4.73;;;2.83;;
809;SDS011;387;48.772;9.186;2022-08-01T07:49:36;8.20;;;2.60;;
809;SDS011;387;48.772;9.186;2022-08-01T07:52:02;5.20;;;2.77;;
809;SDS011;387;48.772;9.186;2022-08-01T07:54:28;4.50;;;2.50;;
809;SDS011;387;48.772;9.186;2022-08-01T07:56:54;3.13;;;2.70;;
809;SDS011;387;48.772;9.186;2022-08-01T07:59:21;4.13;;;3.07;;
809;SDS011;387;48.772;9.186;2022-08-01T08:01:48;4.83;;;2.57;;
809;SDS011;387;48.772;9.186;2022-08-01T08:04:15;3.50;;;2.80;;
809;SDS011;387;48.772;9.186;2022-08-01T08:06:41;5.30;;;3.20;;
809;SDS011;387;48.772;9.186;2022-08-01T08:09:08;4.70;;;3.10;;
809;SDS011;387;48.772;9.186;2022-08-01T08:11:33;5.57;;;3.20;;
809;SDS011;387;48.772;9.186;2022-08-01T08:13:59;4.23;;;2.70;;
809;SDS011;387;48.772;9.186;2022-08-01T08:16:24;4.30;;;3.10;;
809;SDS011;387;48.772;9.186;2022-08-01T08:18:51;5.50;;;3.20;;
809;SDS011;387;48.772;9.186;2022-08-01T08:21:17;3.63;;;3.00;;
809;SDS011;387;48.772;9.186;2022-08-01T08:23:42;7.03;;;3.53;;
809;SDS011;387;48.772;9.186;2022-08-01T08:26:26;3.70;;;2.67;;
809;SDS011;387;48.772;9.186;2022-08-01T08:28:52;5.60;;;3.27;;
809;SDS011;387;48.772;9.186;2022-08-01T08:31:17;5.60;;;3.30;;
809;SDS011;387;48.772;9.186;2022-08-01T08:33:43;5.03;;;3.40;;
809;SDS011;387;48.772;9.186;2022-08-01T08:36:09;4.17;;;2.83;;
809;SDS011;387;48.772;9.186;2022-08-01T08:38:36;6.17;;;3.50;;
809;SDS011;387;48.772;9.186;2022-08-01T08:41:01;4.77;;;2.80;;
809;SDS011;387;48.772;9.186;2022-08-01T08:43:27;4.57;;;3.60;;
809;SDS011;387;48.772;9.186;2022-08-01T08:45:53;4.50;;;3.20;;
809;SDS011;387;48.772;9.186;2022-08-01T08:48:19;4.27;;;3.47;;
809;SDS011;387;48.772;9.186;2022-08-01T08:50:45;7.30;;;4.30;;
809;SDS011;387;48.772;9.186;2022-08-01T08:53:12;5.03;;;3.33;;
809;SDS011;387;48.772;9.186;2022-08-01T08:55:39;4.50;;;3.20;;
809;SDS011;387;48.772;9.186;2022-08-01T08:58:09;7.63;;;3.87;;
809;SDS011;387;48.772;9.186;2022-08-01T09:00:40;6.93;;;3.47;;
809;SDS011;387;48.772;9.186;2022-08-01T09:03:06;5.70;;;3.30;;
809;SDS011;387;48.772;9.186;2022-08-01T09:05:32;5.70;;;3.53;;
809;SDS011;387;48.772;9.186;2022-08-01T09:07:57;5.87;;;4.00;;
809;SDS011;387;48.772;9.186;2022-08-01T09:10:23;6.43;;;4.10;;
809;SDS011;387;48.772;9.186;2022-08-01T09:13:02;8.40;;;5.20;;
809;SDS011;387;48.772;9.186;2022-08-01T09:15:42;7.27;;;4.23;;
809;SDS011;387;48.772;9.186;2022-08-01T09:26:00;8.30;;;5.67;;
809;SDS011;387;48.772;9.186;2022-08-01T09:28:29;7.83;;;5.90;;
809;SDS011;387;48.772;9.186;2022-08-01T09:30:57;12.77;;;8.37;;
809;SDS011;387;48.772;9.186;2022-08-01T09:33:23;12.73;;;8.27;;
809;SDS011;387;48.772;9.186;2022-08-01T09:35:54;18.03;;;10.47;;
809;SDS011;387;48.772;9.186;2022-08-01T09:38:21;13.23;;;10.37;;
809;SDS011;387;48.772;9.186;2022-08-01T09:40:49;12.30;;;9.10;;
809;SDS011;387;48.772;9.186;2022-08-01T09:43:24;12.73;;;7.70;;
809;SDS011;387;48.772;9.186;2022-08-01T09:45:51;11.17;;;7.90;;
809;SDS011;387;48.772;9.186;2022-08-01T09:48:17;8.93;;;7.10;;
809;SDS011;387;48.772;9.186;2022-08-01T09:50:45;10.20;;;7.37;;
809;SDS011;387;48.772;9.186;2022-08-01T09:53:12;9.83;;;6.63;;
809;SDS011;387;48.772;9.186;2022-08-01T09:55:38;15.03;;;9.10;;
809;SDS011;387;48.772;9.186;2022-08-01T09:58:05;8.93;;;6.73;;
809;SDS011;387;48.772;9.186;2022-08-01T10:00:32;10.07;;;6.47;;
809;SDS011;387;48.772;9.186;2022-08-01T10:02:59;9.33;;;6.53;;
809;SDS011;387;48.772;9.186;2022-08-01T10:05:42;8.63;;;6.27;;
809;SDS011;387;48.772;9.186;2022-08-01T10:08:08;11.40;;;5.63;;
809;SDS011;387;48.772;9.186;2022-08-01T10:10:35;9.07;;;5.70;;
809;SDS011;387;48.772;9.186;2022-08-01T10:13:01;13.70;;;6.60;;
809;SDS011;387;48.772;9.186;2022-08-01T10:15:27;9.17;;;6.67;;
809;SDS011;387;48.772;9.186;2022-08-01T10:17:56;10.13;;;7.10;;
809;SDS011;387;48.772;9.186;2022-08-01T10:20:27;9.70;;;6.27;;
809;SDS011;387;48.772;9.186;2022-08-01T10:22:54;11.53;;;6.10;;
809;SDS011;387;48.772;9.186;2022-08-01T10:25:23;9.63;;;6.40;;
809;SDS011;387;48.772;9.186;2022-08-01T10:27:52;7.40;;;5.80;;
809;SDS011;387;48.772;9.186;2022-08-01T10:30:21;8.30;;;5.70;;
809;SDS011;387;48.772;9.186;2022-08-01T10:32:47;7.60;;;5.73;;
809;SDS011;387;48.772;9.186;2022-08-01T10:35:17;8.90;;;5.90;;
809;SDS011;387;48.772;9.186;2022-08-01T10:37:44;7.20;;;5.40;;
809;SDS011;387;48.772;9.186;2022-08-01T10:40:12;7.00;;;5.37;;
809;SDS011;387;48.772;9.186;2022-08-01T10:42:41;6.70;;;4.80;;
809;SDS011;387;48.772;9.186;2022-08-01T10:45:12;5.47;;;4.60;;
809;SDS011;387;48.772;9.186;2022-08-01T10:53:11;7.03;;;4.70;;
809;SDS011;387;48.772;9.186;2022-08-01T10:55:45;7.07;;;4.57;;
809;SDS011;387;48.772;9.186;2022-08-01T10:58:20;6.47;;;4.93;;
809;SDS011;387;48.772;9.186;2022-08-01T11:09:00;7.67;;;6.20;;
809;SDS011;387;48.772;9.186;2022-08-01T11:14:24;8.90;;;5.40;;
809;SDS011;387;48.772;9.186;2022-08-01T11:16:49;7.03;;;5.60;;
809;SDS011;387;48.772;9.186;2022-08-01T11:19:15;9.23;;;5.77;;
809;SDS011;387;48.772;9.186;2022-08-01T11:27:17;7.60;;;5.97;;
809;SDS011;387;48.772;9.186;2022-08-01T11:29:44;6.10;;;4.80;;
809;SDS011;387;48.772;9.186;2022-08-01T11:32:48;6.20;;;4.77;;
809;SDS011;387;48.772;9.186;2022-08-01T11:35:16;6.60;;;4.90;;
809;SDS011;387;48.772;9.186;2022-08-01T11:37:42;4.60;;;3.97;;
809;SDS011;387;48.772;9.186;2022-08-01T11:42:40;6.33;;;3.70;;
809;SDS011;387;48.772;9.186;2022-08-01T11:45:06;6.40;;;3.47;;
809;SDS011;387;48.772;9.186;2022-08-01T11:50:31;6.67;;;4.30;;
809;SDS011;387;48.772;9.186;2022-08-01T11:53:00;6.57;;;4.10;;
809;SDS011;387;48.772;9.186;2022-08-01T11:55:30;5.40;;;4.43;;
809;SDS011;387;48.772;9.186;2022-08-01T12:00:32;7.93;;;4.20;;
809;SDS011;387;48.772;9.186;2022-08-01T12:02:59;11.43;;;4.50;;
809;SDS011;387;48.772;9.186;2022-08-01T12:05:27;4.27;;;3.60;;
809;SDS011;387;48.772;9.186;2022-08-01T12:07:54;8.43;;;4.57;;
809;SDS011;387;48.772;9.186;2022-08-01T12:10:22;4.43;;;3.73;;
809;SDS011;387;48.772;9.186;2022-08-01T12:12:54;5.00;;;4.60;;
809;SDS011;387;48.772;9.186;2022-08-01T12:15:24;5.07;;;4.10;;
809;SDS011;387;48.772;9.186;2022-08-01T12:17:58;7.10;;;4.57;;
809;SDS011;387;48.772;9.186;2022-08-01T12:20:30;6.37;;;4.00;;
809;SDS011;387;48.772;9.186;2022-08-01T12:23:02;5.13;;;4.00;;
809;SDS011;387;48.772;9.186;2022-08-01T12:25:30;5.53;;;4.13;;
809;SDS011;387;48.772;9.186;2022-08-01T12:27:59;5.10;;;3.60;;
809;SDS011;387;48.772;9.186;2022-08-01T12:30:26;5.03;;;3.50;;
809;SDS011;387;48.772;9.186;2022-08-01T12:32:53;5.77;;;3.83;;
809;SDS011;387;48.772;9.186;2022-08-01T12:37:53;6.77;;;4.03;;
809;SDS011;387;48.772;9.186;2022-08-01T12:40:30;4.60;;;3.57;;
809;SDS011;387;48.772;9.186;2022-08-01T12:42:58;7.73;;;5.23;;
809;SDS011;387;48.772;9.186;2022-08-01T12:45:28;6.53;;;3.67;;
809;SDS011;387;48.772;9.186;2022-08-01T12:47:56;8.23;;;4.00;;
809;SDS011;387;48.772;9.186;2022-08-01T12:50:25;8.50;;;4.20;;
809;SDS011;387;48.772;9.186;2022-08-01T12:52:53;6.23;;;4.50;;
809;SDS011;387;48.772;9.186;2022-08-01T12:55:21;5.47;;;4.10;;
809;SDS011;387;48.772;9.186;2022-08-01T12:58:02;7.00;;;4.37;;
809;SDS011;387;48.772;9.186;2022-08-01T13:00:33;4.90;;;3.90;;
809;SDS011;387;48.772;9.186;2022-08-01T13:03:07;7.00;;;4.17;;
809;SDS011;387;48.772;9.186;2022-08-01T13:05:40;7.93;;;4.17;;
809;SDS011;387;48.772;9.186;2022-08-01T13:08:14;8.10;;;3.77;;
809;SDS011;387;48.772;9.186;2022-08-01T13:10:41;6.83;;;3.63;;
809;SDS011;387;48.772;9.186;2022-08-01T13:13:08;5.07;;;3.60;;
809;SDS011;387;48.772;9.186;2022-08-01T13:15:35;5.87;;;3.63;;
809;SDS011;387;48.772;9.186;2022-08-01T13:20:50;8.23;;;4.27;;
809;SDS011;387;48.772;9.186;2022-08-01T13:23:39;4.70;;;3.43;;
809;SDS011;387;48.772;9.186;2022-08-01T13:26:05;6.20;;;4.00;;
809;SDS011;387;48.772;9.186;2022-08-01T13:28:31;7.00;;;4.13;;
809;SDS011;387;48.772;9.186;2022-08-01T13:33:28;5.13;;;4.30;;
809;SDS011;387;48.772;9.186;2022-08-01T13:36:11;4.63;;;3.50;;
809;SDS011;387;48.772;9.186;2022-08-01T13:38:38;5.40;;;3.73;;
809;SDS011;387;48.772;9.186;2022-08-01T13:41:23;5.37;;;3.70;;
809;SDS011;387;48.772;9.186;2022-08-01T13:43:49;6.43;;;3.70;;
809;SDS011;387;48.772;9.186;2022-08-01T13:46:14;6.20;;;3.77;;
809;SDS011;387;48.772;9.186;2022-08-01T13:48:40;8.50;;;3.60;;
809;SDS011;387;48.772;9.186;2022-08-01T13:51:06;5.63;;;3.80;;
809;SDS011;387;48.772;9.186;2022-08-01T13:53:32;5.90;;;3.33;;
809;SDS011;387;48.772;9.186;2022-08-01T13:55:57;4.90;;;3.33;;
809;SDS011;387;48.772;9.186;2022-08-01T13:58:23;5.17;;;3.43;;
809;SDS011;387;48.772;9.186;2022-08-01T14:00:48;5.70;;;3.60;;
809;SDS011;387;48.772;9.186;2022-08-01T14:03:14;6.60;;;3.50;;
809;SDS011;387;48.772;9.186;2022-08-01T14:05:41;4.93;;;3.03;;
809;SDS011;387;48.772;9.186;2022-08-01T14:08:07;6.77;;;3.70;;
809;SDS011;387;48.772;9.186;2022-08-01T14:10:33;5.90;;;3.33;;
809;SDS011;387;48.772;9.186;2022-08-01T14:12:59;3.83;;;3.40;;
809;SDS011;387;48.772;9.186;2022-08-01T14:15:25;5.97;;;3.50;;
809;SDS011;387;48.772;9.186;2022-08-01T14:17:51;6.80;;;4.00;;
809;SDS011;387;48.772;9.186;2022-08-01T14:20:16;9.00;;;3.67;;
809;SDS011;387;48.772;9.186;2022-08-01T14:22:44;6.30;;;3.53;;
809;SDS011;387;48.772;9.186;2022-08-01T14:25:13;4.10;;;3.30;;
809;SDS011;387;48.772;9.186;2022-08-01T14:27:39;4.23;;;3.33;;
809;SDS011;387;48.772;9.186;2022-08-01T14:30:06;8.27;;;3.73;;
809;SDS011;387;48.772;9.186;2022-08-01T14:32:33;5.37;;;3.57;;
809;SDS011;387;48.772;9.186;2022-08-01T14:35:00;5.37;;;3.13;;
809;SDS011;387;48.772;9.186;2022-08-01T14:37:27;4.87;;;3.43;;
809;SDS011;387;48.772;9.186;2022-08-01T14:39:54;4.50;;;3.50;;
809;SDS011;387;48.772;9.186;2022-08-01T14:42:23;8.20;;;3.90;;
809;SDS011;387;48.772;9.186;2022-08-01T14:44:48;6.57;;;3.67;;
809;SDS011;387;48.772;9.186;2022-08-01T14:47:14;4.73;;;3.27;;
809;SDS011;387;48.772;9.186;2022-08-01T14:49:40;4.37;;;3.40;;
809;SDS011;387;48.772;9.186;2022-08-01T14:52:05;4.20;;;3.00;;
809;SDS011;387;48.772;9.186;2022-08-01T14:54:31;6.90;;;4.20;;
809;SDS011;387;48.772;9.186;2022-08-01T14:56:57;4.03;;;3.30;;
809;SDS011;387;48.772;9.186;2022-08-01T14:59:23;4.63;;;3.50;;
809;SDS011;387;48.772;9.186;2022-08-01T15:01:48;4.60;;;3.80;;
809;SDS011;387;48.772;9.186;2022-08-01T15:04:14;8.27;;;3.17;;
809;SDS011;387;48.772;9.186;2022-08-01T15:06:40;6.00;;;3.93;;
809;SDS011;387;48.772;9.186;2022-08-01T15:09:05;5.73;;;3.27;;
809;SDS011;387;48.772;9.186;2022-08-01T15:11:31;3.70;;;2.90;;
809;SDS011;387;48.772;9.186;2022-08-01T15:13:56;3.40;;;2.80;;
809;SDS011;387;48.772;9.186;2022-08-01T15:16:40;4.87;;;2.97;;
809;SDS011;387;48.772;9.186;2022-08-01T15:19:06;4.83;;;2.83;;
809;SDS011;387;48.772;9.186;2022-08-01T15:21:32;4.63;;;2.80;;
809;SDS011;387;48.772;9.186;2022-08-01T15:23:58;4.53;;;3.00;;
809;SDS011;387;48.772;9.186;2022-08-01T15:26:24;6.43;;;3.00;;
809;SDS011;387;48.772;9.186;2022-08-01T15:28:49;3.83;;;3.10;;
809;SDS011;387;48.772;9.186;2022-08-01T15:31:15;5.10;;;3.20;;
809;SDS011;387;48.772;9.186;2022-08-01T15:33:40;4.67;;;3.23;;
809;SDS011;387;48.772;9.186;2022-08-01T15:36:06;3.40;;;3.10;;
809;SDS011;387;48.772;9.186;2022-08-01T15:38:32;3.53;;;2.43;;
809;SDS011;387;48.772;9.186;2022-08-01T15:40:57;3.27;;;2.70;;
809;SDS011;387;48.772;9.186;2022-08-01T15:43:23;3.77;;;2.87;;
809;SDS011;387;48.772;9.186;2022-08-01T15:45:49;5.27;;;3.00;;
809;SDS011;387;48.772;9.186;2022-08-01T15:48:15;5.60;;;3.10;;
809;SDS011;387;48.772;9.186;2022-08-01T15:50:41;3.10;;;2.90;;
809;SDS011;387;48.772;9.186;2022-08-01T15:53:07;4.73;;;2.80;;
809;SDS011;387;48.772;9.186;2022-08-01T15:55:35;5.43;;;3.03;;
809;SDS011;387;48.772;9.186;2022-08-01T15:58:02;3.77;;;2.60;;
809;SDS011;387;48.772;9.186;2022-08-01T16:00:28;4.30;;;2.97;;
809;SDS011;387;48.772;9.186;2022-08-01T16:02:53;5.83;;;2.70;;
809;SDS011;387;48.772;9.186;2022-08-01T16:05:20;3.43;;;2.80;;
809;SDS011;387;48.772;9.186;2022-08-01T16:07:46;4.30;;;2.80;;
809;SDS011;387;48.772;9.186;2022-08-01T16:10:12;4.23;;;2.83;;
809;SDS011;387;48.772;9.186;2022-08-01T16:12:38;4.07;;;2.90;;
809;SDS011;387;48.772;9.186;2022-08-01T16:15:03;2.27;;;2.10;;
809;SDS011;387;48.772;9.186;2022-08-01T16:17:30;4.00;;;2.60;;
809;SDS011;387;48.772;9.186;2022-08-01T16:19:55;5.93;;;2.67;;
809;SDS011;387;48.772;9.186;2022-08-01T16:22:21;2.97;;;2.53;;
809;SDS011;387;48.772;9.186;2022-08-01T16:24:46;5.83;;;3.03;;
809;SDS011;387;48.772;9.186;2022-08-01T16:27:12;3.80;;;2.67;;
809;SDS011;387;48.772;9.186;2022-08-01T16:29:38;2.57;;;2.43;;
809;SDS011;387;48.772;9.186;2022-08-01T16:32:03;3.17;;;2.40;;
809;SDS011;387;48.772;9.186;2022-08-01T16:34:30;16.93;;;3.00;;
809;SDS011;387;48.772;9.186;2022-08-01T16:36:56;3.67;;;2.33;;
809;SDS011;387;48.772;9.186;2022-08-01T16:39:22;3.53;;;2.50;;
809;SDS011;387;48.772;9.186;2022-08-01T16:41:47;6.40;;;2.80;;
809;SDS011;387;48.772;9.186;2022-08-01T16:44:13;4.00;;;2.80;;